Newcastle, NE

9:06 PM CST on December 22, 2014 (GMT -0600)
Wayne Municipal | Change Station
CLOSE
Current Station
Airport
Location: Wayne,
Elevation: 1430 ft
Nearby Weather Stations

Elev 1430 ft 42.24 °N, 96.98 °W | Updated 11 minutes ago

Snow
Snow
35 °F
Feels Like 28 °F
N
10
Wind Variable Wind from NW

Today
High -- | Low -- °F
--% Chance of Precip.
Yesterday
High -- | Low -- °F
Precip. -- in
7:54 AM 4:57 PM
New Moon, 2% visible
Pressure 29.47 in
Visibility 10.0 miles
Clouds Overcast 800 ft
Windchill 28 °F
Dew Point 34 °F
Humidity 94%
Rainfall 0.28 in
Snow Depth Not available.
UV 0 out of 12
Pollen .10 out of 12
Air Quality Not available.
Flu Activity Not available.
METAR KLCG 230255Z AUTO 31009KT 10SM DZ OVC008 02/01 A2947 RMK AO2 P0001 60001 T00180010

More Conditions Fewer Conditions

Pressure 29.47 in
Visibility 10.0 miles
Clouds Overcast 800 ft
Windchill 28 °F
Dew Point 34 °F
Humidity 94%
Rainfall 0.28 in
Snow Depth Not available.
UV 0 out of 12
Pollen .10 out of 12
Air Quality Not available.
Flu Activity Not available.
METAR KLCG 230255Z AUTO 31009KT 10SM DZ OVC008 02/01 A2947 RMK AO2 P0001 60001 T00180010

More Conditions Fewer Conditions

10-Day Weather Forecast

Almanac

Astronomy

Dec. 22, 2014 Rise Set
Actual Time
Civil Twilight
Nautical Twilight
Astronomical Twilight
Moon
Length of Visible Light
Length of Day
Tomorrow will be .
, % of the Moon is Illuminated

Today's Extremes

State Highs State Lows

Community

WunderPhotos

Upload Photos

1,779,763 photos uploaded!

WunderBlogs® & News

Nearby

Air Quality

  Air Quality AQ Index Pollutant
Not available.

Snow Depth

Station Depth Elevation

Earthquake Activity

City Distance Mag. Time & Date
Minimum magnitude displayed is 2.5.

Coastal Water Temperatures

Place Temperature

Nearby Weather Stations